createdAt,value
2018-03-14T00:01:21.068Z,8.92
2018-03-14T00:03:49.318Z,8.85
2018-03-14T00:06:17.616Z,8.84
2018-03-14T00:08:46.080Z,8.83
2018-03-14T00:11:14.376Z,8.77
2018-03-14T00:13:42.729Z,8.77
2018-03-14T00:16:11.044Z,8.84
2018-03-14T00:18:39.328Z,8.85
2018-03-14T00:21:07.588Z,8.83
2018-03-14T00:23:35.897Z,8.72
2018-03-14T00:26:04.154Z,8.68
2018-03-14T00:28:32.443Z,8.75
2018-03-14T00:31:00.708Z,8.78
2018-03-14T00:33:29.013Z,8.88
2018-03-14T00:35:57.261Z,8.82
2018-03-14T00:38:25.536Z,8.74
2018-03-14T00:40:53.784Z,8.85
2018-03-14T00:43:22.076Z,8.92
2018-03-14T00:45:50.334Z,8.97
2018-03-14T00:48:18.651Z,9.00
2018-03-14T00:50:46.907Z,8.96
2018-03-14T00:53:15.229Z,8.71
2018-03-14T00:55:43.472Z,8.60
2018-03-14T00:58:11.772Z,8.51
2018-03-14T01:00:40.017Z,8.46
2018-03-14T01:03:08.295Z,8.53
2018-03-14T01:05:36.562Z,8.60
2018-03-14T01:08:05.062Z,8.74
2018-03-14T01:10:33.314Z,8.67
2018-03-14T01:13:01.591Z,8.57
2018-03-14T01:15:29.880Z,8.65
2018-03-14T01:17:58.126Z,8.81
2018-03-14T01:20:26.410Z,8.91
2018-03-14T01:22:54.678Z,8.95
2018-03-14T01:25:22.953Z,8.93
2018-03-14T01:27:51.259Z,9.01
2018-03-14T01:30:19.568Z,8.89
2018-03-14T01:32:47.797Z,8.96
2018-03-14T01:35:16.067Z,8.67
2018-03-14T01:37:44.340Z,8.58
2018-03-14T01:40:12.636Z,8.63
2018-03-14T01:42:40.871Z,8.66
2018-03-14T01:45:09.167Z,8.72
2018-03-14T01:47:37.448Z,8.86
2018-03-14T01:50:05.723Z,8.85
2018-03-14T01:52:33.995Z,8.83
2018-03-14T01:55:02.271Z,8.85
2018-03-14T01:57:30.537Z,8.84
2018-03-14T01:59:58.811Z,8.81
2018-03-14T02:02:27.068Z,8.80
2018-03-14T02:04:55.367Z,8.81
2018-03-14T02:07:23.636Z,8.98
2018-03-14T02:09:51.898Z,9.03
2018-03-14T02:12:20.188Z,8.99
2018-03-14T02:14:48.447Z,9.05
2018-03-14T02:17:16.757Z,8.85
2018-03-14T02:19:45.029Z,8.85
2018-03-14T02:22:13.311Z,8.87
2018-03-14T02:24:41.759Z,8.85
2018-03-14T02:27:10.455Z,8.83
2018-03-14T02:29:38.775Z,8.88
2018-03-14T02:32:07.037Z,8.96
2018-03-14T02:34:35.309Z,8.98
2018-03-14T02:37:03.572Z,9.12
2018-03-14T02:39:31.967Z,9.00
2018-03-14T02:42:00.261Z,8.86
2018-03-14T02:44:28.508Z,8.92
2018-03-14T02:46:56.788Z,8.93
2018-03-14T02:49:25.041Z,8.72
2018-03-14T02:51:53.643Z,8.71
2018-03-14T02:54:21.907Z,8.73
2018-03-14T02:56:50.200Z,8.84
2018-03-14T02:59:18.472Z,8.97
2018-03-14T03:01:46.751Z,8.99
2018-03-14T03:04:15.025Z,9.00
2018-03-14T03:06:43.308Z,8.95
2018-03-14T03:09:11.788Z,8.84
2018-03-14T03:11:40.046Z,8.96
2018-03-14T03:14:08.340Z,8.94
2018-03-14T03:16:36.608Z,8.92
2018-03-14T03:19:04.897Z,9.00
2018-03-14T03:21:33.155Z,9.02
2018-03-14T03:24:01.452Z,9.08
2018-03-14T03:26:29.715Z,9.01
2018-03-14T03:28:58.027Z,9.01
2018-03-14T03:31:26.294Z,9.05
2018-03-14T03:33:54.568Z,9.12
2018-03-14T03:36:22.826Z,9.04
2018-03-14T03:38:51.104Z,8.88
2018-03-14T03:41:19.375Z,8.92
2018-03-14T03:43:47.676Z,8.84
2018-03-14T03:46:15.924Z,8.88
2018-03-14T03:48:44.228Z,8.89
2018-03-14T03:51:12.475Z,8.94
2018-03-14T03:53:40.771Z,8.86
2018-03-14T03:56:09.067Z,8.96
2018-03-14T03:58:37.357Z,9.02
2018-03-14T04:01:05.608Z,9.03
2018-03-14T04:03:34.231Z,8.99
2018-03-14T04:06:02.516Z,8.96
2018-03-14T04:08:30.763Z,8.98
2018-03-14T04:10:59.048Z,8.97
2018-03-14T04:13:27.296Z,8.86
2018-03-14T04:15:55.652Z,8.94
2018-03-14T04:18:23.898Z,8.94
2018-03-14T04:20:52.220Z,8.85
2018-03-14T04:23:20.481Z,8.87
2018-03-14T04:25:48.769Z,8.82
2018-03-14T04:28:17.041Z,8.75
2018-03-14T04:30:45.325Z,8.73
2018-03-14T04:33:13.590Z,8.76
2018-03-14T04:35:41.868Z,8.79
2018-03-14T04:38:10.151Z,8.80
2018-03-14T04:40:38.428Z,8.81
2018-03-14T04:43:06.696Z,8.75
2018-03-14T04:45:34.996Z,8.85
2018-03-14T04:48:03.275Z,8.91
2018-03-14T04:50:31.592Z,8.86
2018-03-14T04:52:59.865Z,8.84
2018-03-14T04:55:28.147Z,8.87
2018-03-14T04:57:56.428Z,8.81
2018-03-14T05:00:24.708Z,8.59
2018-03-14T05:02:52.972Z,8.63
2018-03-14T05:05:21.872Z,8.66
2018-03-14T05:07:50.149Z,8.65
2018-03-14T05:10:18.415Z,8.76
2018-03-14T05:12:46.825Z,8.86
2018-03-14T05:15:15.099Z,8.85
2018-03-14T05:17:43.400Z,8.83
2018-03-14T05:20:11.661Z,8.78
2018-03-14T05:22:39.948Z,8.51
2018-03-14T05:25:08.212Z,8.59
2018-03-14T05:27:36.556Z,8.55
2018-03-14T05:30:05.372Z,8.66
2018-03-14T05:32:33.655Z,8.72
2018-03-14T05:35:01.915Z,8.68
2018-03-14T05:37:30.208Z,8.55
2018-03-14T05:39:58.491Z,8.60
2018-03-14T05:42:26.766Z,8.59
2018-03-14T05:44:55.038Z,8.65
2018-03-14T05:47:23.339Z,8.72
2018-03-14T05:49:51.575Z,8.74
2018-03-14T05:52:19.934Z,8.80
2018-03-14T05:54:48.212Z,8.78
2018-03-14T05:57:16.510Z,8.78
2018-03-14T05:59:44.834Z,8.84
2018-03-14T06:02:13.084Z,8.81
2018-03-14T06:04:41.344Z,8.76
2018-03-14T06:07:09.649Z,8.84
2018-03-14T06:09:37.940Z,8.89
2018-03-14T06:12:06.203Z,8.94
2018-03-14T06:14:34.558Z,9.03
2018-03-14T06:17:02.846Z,9.05
2018-03-14T06:19:31.200Z,9.04
2018-03-14T06:22:00.337Z,10.89
2018-03-14T06:24:28.626Z,11.78
2018-03-14T06:26:56.893Z,10.80
2018-03-14T06:29:25.188Z,10.37
2018-03-14T06:31:53.469Z,9.75
2018-03-14T06:34:21.783Z,9.48
2018-03-14T06:36:50.046Z,9.29
2018-03-14T06:39:18.364Z,9.32
2018-03-14T06:41:46.771Z,9.16
2018-03-14T06:44:15.056Z,9.02
2018-03-14T06:46:43.316Z,8.89
2018-03-14T06:49:11.733Z,8.87
2018-03-14T06:51:40.056Z,8.88
2018-03-14T06:54:08.356Z,8.98
2018-03-14T06:56:36.641Z,8.91
2018-03-14T06:59:17.345Z,8.69
2018-03-14T07:01:57.420Z,9.02
2018-03-14T07:04:44.337Z,9.00
2018-03-14T07:07:12.620Z,8.96
2018-03-14T07:09:40.969Z,8.88
2018-03-14T07:12:09.247Z,8.73
2018-03-14T07:14:37.528Z,8.73
2018-03-14T07:17:05.812Z,8.71
2018-03-14T07:19:34.356Z,8.66
2018-03-14T07:22:02.688Z,8.69
2018-03-14T07:24:31.010Z,8.70
2018-03-14T07:26:59.360Z,8.76
2018-03-14T07:29:27.633Z,8.88
2018-03-14T07:31:56.056Z,8.95
2018-03-14T07:34:24.362Z,8.92
2018-03-14T07:36:52.650Z,8.91
2018-03-14T07:39:20.919Z,9.02
2018-03-14T07:41:49.221Z,8.94
2018-03-14T07:44:17.512Z,8.91
2018-03-14T07:46:45.808Z,9.11
2018-03-14T07:49:14.109Z,9.11
2018-03-14T07:51:42.414Z,9.25
2018-03-14T07:54:10.718Z,9.33
2018-03-14T07:56:39.026Z,9.25
2018-03-14T07:59:08.335Z,9.22
2018-03-14T08:01:36.632Z,9.25
2018-03-14T08:04:05.035Z,9.27
2018-03-14T08:06:33.496Z,9.34
2018-03-14T08:09:01.867Z,9.46
2018-03-14T08:11:30.136Z,9.52
2018-03-14T08:13:58.535Z,9.51
2018-03-14T08:16:26.743Z,9.58
2018-03-14T08:18:55.077Z,9.58
2018-03-14T08:21:23.438Z,9.67
2018-03-14T08:23:51.686Z,9.75
2018-03-14T08:26:19.928Z,9.91
2018-03-14T08:28:48.234Z,10.06
2018-03-14T08:31:16.533Z,10.03
2018-03-14T08:33:44.855Z,10.02
2018-03-14T08:36:13.118Z,9.86
2018-03-14T08:38:41.425Z,9.77
2018-03-14T08:41:09.707Z,9.85
2018-03-14T08:43:37.995Z,9.87
2018-03-14T08:46:06.294Z,9.76
2018-03-14T08:48:34.607Z,9.73
2018-03-14T08:51:02.931Z,9.80
2018-03-14T08:53:31.252Z,9.86
2018-03-14T08:55:59.529Z,9.90
2018-03-14T08:58:27.900Z,10.05
2018-03-14T09:00:56.215Z,10.09
2018-03-14T09:03:24.548Z,10.17
2018-03-14T09:05:52.846Z,10.43
2018-03-14T09:08:27.924Z,10.56
2018-03-14T09:10:56.220Z,10.50
2018-03-14T09:13:24.522Z,10.56
2018-03-14T09:15:52.834Z,10.71
2018-03-14T09:18:21.106Z,10.66
2018-03-14T09:20:49.396Z,10.71
2018-03-14T09:23:17.703Z,10.47
2018-03-14T09:25:45.995Z,10.69
2018-03-14T09:28:14.307Z,10.85
2018-03-14T09:30:42.599Z,10.87
2018-03-14T09:33:10.859Z,10.98
2018-03-14T09:35:39.214Z,10.92
2018-03-14T09:38:07.491Z,10.80
2018-03-14T09:40:35.797Z,10.83
2018-03-14T09:43:04.496Z,11.04
2018-03-14T09:45:32.872Z,11.11
2018-03-14T09:48:01.831Z,11.15
2018-03-14T09:50:30.293Z,11.26
2018-03-14T09:52:59.073Z,11.27
2018-03-14T09:55:27.356Z,11.22
2018-03-14T09:57:55.665Z,11.04
2018-03-14T10:00:24.016Z,10.91
2018-03-14T10:02:52.363Z,10.94
2018-03-14T10:05:20.725Z,11.09
2018-03-14T10:07:49.027Z,11.38
2018-03-14T10:10:18.396Z,11.67
2018-03-14T10:12:50.285Z,11.96
2018-03-14T10:15:18.581Z,11.48
2018-03-14T10:17:46.898Z,11.48
2018-03-14T10:20:15.378Z,11.59
2018-03-14T10:22:44.213Z,11.43
2018-03-14T10:25:12.482Z,11.51
2018-03-14T10:27:40.839Z,11.43
2018-03-14T10:30:09.155Z,11.46
2018-03-14T10:32:37.465Z,11.46
2018-03-14T10:35:06.605Z,11.54
2018-03-14T10:37:34.920Z,11.84
2018-03-14T10:40:03.784Z,11.95
2018-03-14T10:42:32.237Z,12.01
2018-03-14T10:45:01.048Z,12.19
2018-03-14T10:47:29.343Z,12.40
2018-03-14T10:49:57.679Z,12.68
2018-03-14T10:52:25.969Z,12.83
2018-03-14T10:54:54.312Z,13.00
2018-03-14T10:57:22.596Z,13.05
2018-03-14T10:59:50.900Z,12.49
2018-03-14T11:02:23.095Z,12.38
2018-03-14T11:04:51.380Z,12.40
2018-03-14T11:07:19.698Z,12.51
2018-03-14T11:09:48.840Z,12.76
2018-03-14T11:12:17.178Z,12.51
2018-03-14T11:14:45.533Z,12.19
2018-03-14T11:17:13.839Z,12.25
2018-03-14T11:19:42.156Z,12.13
2018-03-14T11:22:10.464Z,12.36
2018-03-14T11:24:38.804Z,12.76
2018-03-14T11:27:07.123Z,12.84
2018-03-14T11:29:35.453Z,12.48
2018-03-14T11:32:03.771Z,12.25
2018-03-14T11:34:32.159Z,12.24
2018-03-14T11:37:00.520Z,12.34
2018-03-14T11:39:28.826Z,12.60
2018-03-14T11:41:57.193Z,12.97
2018-03-14T11:44:26.461Z,13.08
2018-03-14T11:46:55.183Z,13.08
2018-03-14T11:49:24.490Z,13.40
2018-03-14T11:51:52.778Z,13.65
2018-03-14T11:54:21.548Z,13.68
2018-03-14T11:56:49.888Z,13.78
2018-03-14T11:59:18.127Z,14.00
2018-03-14T12:01:46.657Z,14.30
2018-03-14T12:04:14.994Z,14.44
2018-03-14T12:06:43.266Z,14.10
2018-03-14T12:09:12.576Z,14.22
2018-03-14T12:11:41.120Z,14.42
2018-03-14T12:14:09.397Z,14.59
2018-03-14T12:16:37.720Z,14.48
2018-03-14T12:19:05.993Z,14.24
2018-03-14T12:21:34.392Z,14.27
2018-03-14T12:24:02.672Z,14.45
2018-03-14T12:26:31.000Z,14.35
2018-03-14T12:28:59.352Z,14.20
2018-03-14T12:31:27.668Z,14.34
2018-03-14T12:33:55.920Z,14.49
2018-03-14T12:36:24.231Z,14.37
2018-03-14T12:38:52.504Z,14.50
2018-03-14T12:41:20.864Z,14.75
2018-03-14T12:43:49.145Z,14.90
2018-03-14T12:46:17.451Z,15.25
2018-03-14T12:48:45.722Z,15.29
2018-03-14T12:51:14.121Z,15.07
2018-03-14T12:53:42.388Z,15.19
2018-03-14T12:56:10.767Z,15.40
2018-03-14T12:58:39.624Z,15.35
2018-03-14T13:01:07.919Z,15.38
2018-03-14T13:03:36.195Z,15.22
2018-03-14T13:06:04.541Z,15.09
2018-03-14T13:08:33.034Z,15.52
2018-03-14T13:11:01.962Z,15.79
2018-03-14T13:13:30.326Z,15.91
2018-03-14T13:15:58.597Z,15.87
2018-03-14T13:18:26.903Z,16.11
2018-03-14T13:20:55.177Z,16.05
2018-03-14T13:23:23.732Z,16.02
2018-03-14T13:25:51.976Z,16.36
2018-03-14T13:28:20.281Z,16.18
2018-03-14T13:30:48.797Z,15.90
2018-03-14T13:33:17.120Z,16.22
2018-03-14T13:35:45.395Z,16.51
2018-03-14T13:38:13.694Z,16.90
2018-03-14T13:40:41.981Z,17.37
2018-03-14T13:43:10.248Z,17.24
2018-03-14T13:45:38.549Z,16.98
2018-03-14T13:48:06.867Z,16.65
2018-03-14T13:50:35.138Z,16.19
2018-03-14T13:53:03.461Z,16.09
2018-03-14T13:55:32.147Z,16.05
2018-03-14T13:58:00.434Z,16.19
2018-03-14T14:00:28.723Z,16.23
2018-03-14T14:02:57.916Z,16.30
2018-03-14T14:05:26.182Z,16.54
2018-03-14T14:07:54.463Z,16.62
2018-03-14T14:10:22.843Z,16.99
2018-03-14T14:12:51.113Z,17.23
2018-03-14T14:15:21.102Z,17.64
2018-03-14T14:17:49.521Z,17.63
2018-03-14T14:20:18.808Z,17.60
2018-03-14T14:22:47.111Z,17.76
2018-03-14T14:25:15.480Z,17.86
2018-03-14T14:27:43.759Z,17.80
2018-03-14T14:30:12.081Z,17.43
2018-03-14T14:32:40.446Z,16.95
2018-03-14T14:35:08.803Z,16.66
2018-03-14T14:37:37.111Z,16.31
2018-03-14T14:40:05.685Z,16.22
2018-03-14T14:42:34.676Z,16.20
2018-03-14T14:45:04.447Z,16.16
2018-03-14T14:47:32.799Z,16.14
2018-03-14T14:50:01.107Z,16.10
2018-03-14T14:52:29.400Z,15.96
2018-03-14T14:54:58.645Z,15.92
2018-03-14T14:57:26.980Z,15.76
2018-03-14T14:59:55.288Z,15.65
2018-03-14T15:02:23.555Z,15.72
2018-03-14T15:04:52.822Z,15.64
2018-03-14T15:07:22.019Z,15.41
2018-03-14T15:09:50.407Z,15.45
2018-03-14T15:12:18.663Z,15.39
2018-03-14T15:14:46.960Z,15.05
2018-03-14T15:17:15.237Z,15.14
2018-03-14T15:19:43.497Z,14.98
2018-03-14T15:22:11.807Z,14.96
2018-03-14T15:24:40.147Z,14.85
2018-03-14T15:27:08.444Z,14.96
2018-03-14T15:29:36.738Z,14.93
2018-03-14T15:32:05.030Z,14.84
2018-03-14T15:34:33.306Z,14.78
2018-03-14T15:37:01.728Z,14.71
2018-03-14T15:39:30.002Z,14.81
2018-03-14T15:41:58.315Z,14.86
2018-03-14T15:44:26.594Z,14.77
2018-03-14T15:46:54.884Z,14.69
2018-03-14T15:49:23.154Z,14.72
2018-03-14T15:51:52.280Z,14.68
2018-03-14T15:54:20.550Z,14.68
2018-03-14T15:56:48.841Z,14.66
2018-03-14T15:59:17.150Z,14.71
2018-03-14T16:01:45.524Z,14.60
2018-03-14T16:04:13.803Z,14.49
2018-03-14T16:06:42.119Z,14.32
2018-03-14T16:09:10.432Z,14.22
2018-03-14T16:11:39.188Z,14.29
2018-03-14T16:14:07.496Z,14.40
2018-03-14T16:16:35.873Z,14.16
2018-03-14T16:19:04.452Z,14.09
2018-03-14T16:21:33.453Z,14.21
2018-03-14T16:24:01.818Z,14.26
2018-03-14T16:26:30.123Z,14.25
2018-03-14T16:28:58.546Z,14.19
2018-03-14T16:31:26.831Z,14.08
2018-03-14T16:33:55.213Z,14.05
2018-03-14T16:36:24.436Z,13.98
2018-03-14T16:38:53.728Z,13.83
2018-03-14T16:41:22.087Z,13.69
2018-03-14T16:43:50.472Z,13.68
2018-03-14T16:46:18.765Z,13.65
2018-03-14T16:48:47.969Z,13.51
2018-03-14T16:51:16.249Z,13.43
2018-03-14T16:53:44.572Z,13.44
2018-03-14T16:56:14.823Z,13.46
2018-03-14T16:58:43.219Z,13.41
2018-03-14T17:01:11.580Z,13.34
2018-03-14T17:03:39.880Z,13.30
2018-03-14T17:06:08.176Z,13.31
2018-03-14T17:08:36.552Z,13.30
2018-03-14T17:11:05.001Z,13.23
2018-03-14T17:13:33.302Z,13.25
2018-03-14T17:16:01.692Z,13.19
2018-03-14T17:18:29.996Z,13.13
2018-03-14T17:20:58.318Z,12.98
2018-03-14T17:23:26.707Z,12.91
2018-03-14T17:25:54.996Z,12.83
2018-03-14T17:28:23.853Z,12.82
2018-03-14T17:30:52.153Z,12.85
2018-03-14T17:33:20.543Z,12.81
2018-03-14T17:35:48.836Z,12.80
2018-03-14T17:38:17.146Z,12.63
2018-03-14T17:40:45.554Z,12.68
2018-03-14T17:43:13.899Z,12.61
2018-03-14T17:45:42.203Z,12.47
2018-03-14T17:48:10.491Z,12.43
2018-03-14T17:50:38.772Z,12.38
2018-03-14T17:53:07.104Z,12.39
2018-03-14T17:55:35.520Z,12.41
2018-03-14T17:58:04.303Z,12.25
2018-03-14T18:00:32.591Z,12.20
2018-03-14T18:03:00.876Z,12.18
2018-03-14T18:05:29.338Z,12.09
2018-03-14T18:07:57.651Z,11.99
2018-03-14T18:10:26.694Z,11.96
2018-03-14T18:12:56.190Z,11.98
2018-03-14T18:15:24.484Z,11.96
2018-03-14T18:17:53.672Z,11.92
2018-03-14T18:20:21.969Z,11.77
2018-03-14T18:22:50.253Z,11.66
2018-03-14T18:25:18.530Z,11.67
2018-03-14T18:27:46.852Z,11.60
2018-03-14T18:30:15.115Z,11.51
2018-03-14T18:32:43.507Z,11.52
2018-03-14T18:35:11.770Z,11.55
2018-03-14T18:37:40.084Z,11.50
2018-03-14T18:40:08.392Z,11.50
2018-03-14T18:42:37.293Z,11.42
2018-03-14T18:45:05.572Z,11.34
2018-03-14T18:47:33.855Z,11.25
2018-03-14T18:50:02.236Z,11.24
2018-03-14T18:52:30.546Z,11.24
2018-03-14T18:54:58.811Z,11.18
2018-03-14T18:57:27.135Z,11.12
2018-03-14T18:59:55.397Z,11.00
2018-03-14T19:02:26.397Z,10.95
2018-03-14T19:04:54.675Z,10.92
2018-03-14T19:07:23.769Z,10.99
2018-03-14T19:09:52.253Z,10.92
2018-03-14T19:12:21.647Z,10.87
2018-03-14T19:14:51.261Z,10.70
2018-03-14T19:17:19.551Z,10.63
2018-03-14T19:19:47.865Z,10.57
2018-03-14T19:22:16.180Z,10.52
2018-03-14T19:24:45.328Z,10.66
2018-03-14T19:27:13.657Z,10.63
2018-03-14T19:29:41.923Z,10.48
2018-03-14T19:32:10.202Z,10.44
2018-03-14T19:34:38.501Z,10.40
2018-03-14T19:37:06.787Z,10.39
2018-03-14T19:39:35.101Z,10.40
2018-03-14T19:42:03.424Z,10.36
2018-03-14T19:44:31.743Z,10.37
2018-03-14T19:47:00.001Z,10.24
2018-03-14T19:49:28.278Z,10.15
2018-03-14T19:51:56.575Z,10.03
2018-03-14T19:54:24.878Z,9.95
2018-03-14T19:56:53.182Z,10.03
2018-03-14T19:59:21.496Z,10.03
2018-03-14T20:01:49.738Z,9.97
2018-03-14T20:04:18.055Z,10.01
2018-03-14T20:06:46.331Z,9.89
2018-03-14T20:09:14.668Z,9.88
2018-03-14T20:11:42.905Z,9.69
2018-03-14T20:14:11.196Z,9.72
2018-03-14T20:16:39.499Z,9.75
2018-03-14T20:19:07.760Z,9.76
2018-03-14T20:21:36.054Z,9.69
2018-03-14T20:24:05.121Z,9.71
2018-03-14T20:26:33.402Z,9.70
2018-03-14T20:29:01.731Z,9.71
2018-03-14T20:31:30.005Z,9.62
2018-03-14T20:33:58.270Z,9.53
2018-03-14T20:36:26.578Z,9.48
2018-03-14T20:38:54.846Z,9.49
2018-03-14T20:41:23.157Z,9.55
2018-03-14T20:43:51.485Z,9.58
2018-03-14T20:46:19.770Z,9.60
2018-03-14T20:48:48.033Z,9.50
2018-03-14T20:51:16.551Z,9.47
2018-03-14T20:53:45.099Z,9.40
2018-03-14T20:56:13.456Z,9.39
2018-03-14T20:58:41.727Z,9.33
2018-03-14T21:01:10.055Z,9.32
2018-03-14T21:03:38.320Z,9.28
2018-03-14T21:06:06.724Z,9.29
2018-03-14T21:08:34.979Z,9.29
2018-03-14T21:11:04.126Z,9.23
2018-03-14T21:13:32.413Z,9.16
2018-03-14T21:16:00.728Z,9.19
2018-03-14T21:18:29.088Z,9.21
2018-03-14T21:20:58.286Z,9.16
2018-03-14T21:23:26.747Z,9.10
2018-03-14T21:25:55.073Z,9.11
2018-03-14T21:28:23.388Z,9.12
2018-03-14T21:30:51.815Z,9.10
2018-03-14T21:33:20.066Z,9.02
2018-03-14T21:35:48.359Z,9.04
2018-03-14T21:38:16.689Z,8.91
2018-03-14T21:40:45.009Z,9.03
2018-03-14T21:43:13.317Z,8.94
2018-03-14T21:45:41.595Z,8.99
2018-03-14T21:48:10.570Z,9.06
2018-03-14T21:50:38.847Z,8.94
2018-03-14T21:53:07.220Z,8.96
2018-03-14T21:55:39.723Z,9.02
2018-03-14T21:58:08.029Z,9.07
2018-03-14T22:00:36.298Z,9.02
2018-03-14T22:03:05.611Z,9.01
2018-03-14T22:05:33.871Z,9.00
2018-03-14T22:08:02.258Z,9.09
2018-03-14T22:10:30.465Z,9.05
2018-03-14T22:12:58.773Z,9.00
2018-03-14T22:15:27.061Z,9.03
2018-03-14T22:17:55.328Z,9.11
2018-03-14T22:20:23.624Z,9.11
2018-03-14T22:22:51.887Z,9.04
2018-03-14T22:25:20.265Z,9.08
2018-03-14T22:27:48.512Z,9.10
2018-03-14T22:30:16.816Z,9.03
2018-03-14T22:32:45.139Z,9.10
2018-03-14T22:35:13.696Z,9.14
2018-03-14T22:37:41.973Z,9.10
2018-03-14T22:40:10.813Z,9.13
2018-03-14T22:42:39.092Z,9.04
2018-03-14T22:45:07.441Z,8.99
2018-03-14T22:47:35.777Z,8.95
2018-03-14T22:50:04.464Z,8.90
2018-03-14T22:52:32.705Z,8.90
2018-03-14T22:55:00.988Z,8.88
2018-03-14T22:57:29.325Z,8.82
2018-03-14T22:59:57.655Z,8.76
2018-03-14T23:02:26.607Z,8.74
2018-03-14T23:04:54.964Z,8.75
2018-03-14T23:07:23.372Z,8.79
2018-03-14T23:09:51.605Z,8.79
2018-03-14T23:12:19.885Z,8.73
2018-03-14T23:14:48.268Z,8.70
2018-03-14T23:17:16.570Z,8.66
2018-03-14T23:19:44.820Z,8.67
2018-03-14T23:22:13.231Z,8.59
2018-03-14T23:24:41.569Z,8.56
2018-03-14T23:27:09.854Z,8.54
2018-03-14T23:29:38.122Z,8.57
2018-03-14T23:32:06.395Z,8.57
2018-03-14T23:34:34.651Z,8.56
2018-03-14T23:37:03.050Z,8.56
2018-03-14T23:39:31.339Z,8.55
2018-03-14T23:41:59.638Z,8.49
2018-03-14T23:44:28.065Z,8.51
2018-03-14T23:46:56.420Z,8.50
2018-03-14T23:49:24.689Z,8.36
2018-03-14T23:51:53.038Z,8.40
2018-03-14T23:54:21.337Z,8.39
2018-03-14T23:56:49.652Z,8.39
2018-03-14T23:59:17.899Z,8.36
